Portada
METAR-TAF:

METAR-TAF

Aeropuertos :

Aeropuerto de Verona-Villafranca

Verona, Italia

latitud: 45-23N, longitud: 010-52E, altitud: 67 m

Observación

El informe se hizo hace 39 minutos, a las 00:20 UTC
Viento 3 kt del noroeste
Temperatura 3°C
Humedad 65%
Presión 1032 hPa
Visibilidad 10 km o más
sin nubes por debajo de 1500 m y sin presencia de cumulonimbus.

METAR: LIPX 020020Z 32003KT CAVOK 03/M03 Q1032

Hora: 01:59 (00:59 UTC)

Pronóstico

El informe se hizo hace 1 hora y 59 minutos, a las 23:00 UTC
Pronóstico válido del 02 a las 00 UTC al 02 a las 09 UTC
Viento 5 kt con dirección variable
Visibilidad 10 km o más
sin nubes por debajo de 1500 m y sin presencia de cumulonimbus.

TAF: LIPX 012300Z 0200/0209 VRB05KT CAVOK

Observaciones y pronósticos meteorológicos de más de 4000 aeropuertos (mensajes METAR y TAF).

Los puntos amarillos y rojos representan las estaciones disponibles.

Ponga el ratón en el punto deseado para ver el nombre de la estación.

Haga clic para ver las observaciones y los pronósticos meteorológicos.

Para cambiar el mapa : haga clic en los botones verdes con una cruz de color negro para hacer un zoom, en el botón verde con un guión para alejar o en las flechas verdes para mapas adyacentes.


METAR-TAF: